Time;durP1;ratioP1;P1;durP2;ratioP2;P2;SDS_P1;SDS_P2;PMS_P1;PMS_P2;Temp;Humidity;BMP_temperature;BMP_pressure;BME280_temperature;BME280_humidity;BME280_pressure;Samples;Min_cycle;Max_cycle;Signal;HPM_P1;HPM_P2
2022/11/12 00:02:11;;;;;;;17.35;12.27;;;;;;;4.85;89.36;103075.44;5061236;28;20033;-70
2022/11/12 00:04:36;;;;;;;14.75;10.10;;;;;;;4.86;89.40;103088.50;5064151;28;20025;-70
2022/11/12 00:07:01;;;;;;;10.07;7.72;;;;;;;4.85;87.93;103090.94;5065531;28;20091;-65
2022/11/12 00:09:27;;;;;;;11.88;9.07;;;;;;;4.79;87.42;103090.44;5065611;28;20040;-65
2022/11/12 00:11:52;;;;;;;12.68;9.40;;;;;;;4.72;87.93;103095.88;5066141;28;20029;-65
2022/11/12 00:14:17;;;;;;;13.15;10.43;;;;;;;4.68;88.12;103099.91;5064607;28;20033;-65
2022/11/12 00:16:42;;;;;;;14.68;11.55;;;;;;;4.68;88.81;103103.38;5064675;28;20295;-65
2022/11/12 00:19:08;;;;;;;15.75;12.32;;;;;;;4.68;89.09;103103.38;5065220;28;20051;-65
2022/11/12 00:21:33;;;;;;;17.35;12.20;;;;;;;4.71;89.65;103097.56;5064883;28;20332;-65
2022/11/12 00:23:58;;;;;;;18.20;13.50;;;;;;;4.75;90.05;103098.72;5065257;28;20047;-65
2022/11/12 00:26:24;;;;;;;20.85;13.88;;;;;;;4.76;89.81;103101.41;5062212;28;20088;-65
2022/11/12 00:28:49;;;;;;;19.65;14.40;;;;;;;4.76;89.62;103105.69;5064394;28;20419;-65
2022/11/12 00:31:14;;;;;;;18.25;14.32;;;;;;;4.77;90.01;103102.34;5064577;28;20032;-65
2022/11/12 00:33:41;;;;;;;21.90;16.02;;;;;;;4.79;89.79;103105.94;5063749;28;20029;-65
2022/11/12 00:36:07;;;;;;;23.55;15.50;;;;;;;4.80;90.25;103115.50;5064318;28;20209;-71
2022/11/12 00:38:32;;;;;;;22.00;15.98;;;;;;;4.80;89.94;103111.22;5065534;28;20060;-70
2022/11/12 00:40:59;;;;;;;21.00;15.38;;;;;;;4.81;89.37;103112.16;5064262;28;20025;-70
2022/11/12 00:43:24;;;;;;;21.70;16.52;;;;;;;4.79;89.42;103112.00;5063365;28;20094;-71
2022/11/12 00:45:49;;;;;;;25.58;17.52;;;;;;;4.79;89.70;103108.53;5063468;28;20187;-71
2022/11/12 00:48:14;;;;;;;25.65;18.27;;;;;;;4.78;89.87;103107.63;5065265;28;20020;-71
2022/11/12 00:50:40;;;;;;;24.92;18.25;;;;;;;4.77;89.51;103098.06;5079872;28;20252;-70
2022/11/12 00:53:05;;;;;;;24.20;18.58;;;;;;;4.77;89.64;103100.66;5064609;28;20100;-70
2022/11/12 00:55:30;;;;;;;26.10;19.42;;;;;;;4.78;89.77;103098.97;5064782;28;20067;-71
2022/11/12 00:57:57;;;;;;;23.08;17.45;;;;;;;4.76;89.82;103098.84;5063600;28;20025;-70
2022/11/12 01:00:22;;;;;;;22.65;16.75;;;;;;;4.75;89.52;103098.72;5063612;28;20044;-70
2022/11/12 01:02:47;;;;;;;22.10;16.40;;;;;;;4.72;89.65;103096.75;5064235;28;20099;-71
2022/11/12 01:05:13;;;;;;;23.40;17.23;;;;;;;4.72;89.90;103093.28;5063678;28;20123;-71
2022/11/12 01:07:38;;;;;;;24.38;17.38;;;;;;;4.72;90.40;103090.72;5075184;28;20315;-70
2022/11/12 01:10:04;;;;;;;24.15;16.48;;;;;;;4.73;90.30;103097.69;5058486;28;20078;-71
2022/11/12 01:12:30;;;;;;;23.13;17.25;;;;;;;4.73;89.96;103096.00;5063910;28;20127;-69
2022/11/12 01:14:55;;;;;;;25.73;18.77;;;;;;;4.71;90.13;103094.97;5063312;28;20154;-71
2022/11/12 01:17:21;;;;;;;24.02;17.52;;;;;;;4.70;89.99;103086.31;5063834;28;20044;-71
2022/11/12 01:19:46;;;;;;;26.02;18.13;;;;;;;4.72;90.31;103088.13;5063880;28;20021;-70
2022/11/12 01:22:11;;;;;;;24.98;18.08;;;;;;;4.70;90.09;103088.00;5053083;28;20052;-70
2022/11/12 01:24:37;;;;;;;25.85;17.50;;;;;;;4.68;90.07;103086.97;5063097;28;20068;-71
2022/11/12 01:27:02;;;;;;;21.95;16.17;;;;;;;4.66;89.01;103088.50;5063570;28;20048;-71
2022/11/12 01:29:27;;;;;;;21.17;15.48;;;;;;;4.62;88.64;103081.28;5063402;28;20092;-70
2022/11/12 01:31:52;;;;;;;22.00;15.07;;;;;;;4.58;89.01;103087.88;5062956;28;20299;-70
2022/11/12 01:34:18;;;;;;;21.15;15.52;;;;;;;4.51;88.79;103083.88;5062778;28;20043;-70
2022/11/12 01:36:43;;;;;;;20.02;15.00;;;;;;;4.48;89.22;103083.63;5061244;28;20052;-70
2022/11/12 01:39:09;;;;;;;18.83;13.88;;;;;;;4.46;88.66;103082.59;5062305;28;20035;-71
2022/11/12 01:41:36;;;;;;;19.40;14.85;;;;;;;4.46;88.69;103082.59;5062038;28;20127;-70
2022/11/12 01:44:25;;;;;;;20.13;16.05;;;;;;;4.44;89.17;103083.22;5058082;28;20191;-71
2022/11/12 01:47:09;;;;;;;19.95;15.50;;;;;;;4.42;89.08;103084.75;5059695;28;20047;-71
2022/11/12 01:49:46;;;;;;;20.77;14.80;;;;;;;4.44;89.56;103078.06;5063469;28;20203;-71
2022/11/12 01:52:19;;;;;;;17.65;13.68;;;;;;;4.44;89.80;103067.75;5062500;28;20029;-70
2022/11/12 01:54:49;;;;;;;18.50;14.57;;;;;;;4.43;89.17;103073.66;5062946;28;20069;-71
2022/11/12 01:57:17;;;;;;;;;;;;;;;4.47;89.05;103080.91;5051158;28;20021;-71
2022/11/12 01:59:46;;;;;;;20.33;14.68;;;;;;;4.38;89.02;103081.03;5061791;28;19954;-70
2022/11/12 02:02:12;;;;;;;19.58;14.45;;;;;;;4.34;89.12;103077.31;5058173;28;20036;-71
2022/11/12 02:04:40;;;;;;;17.83;14.15;;;;;;;4.34;89.57;103076.38;5062455;28;20045;-70
2022/11/12 02:07:07;;;;;;;16.20;12.95;;;;;;;4.29;88.71;103073.41;5063773;28;20088;-70
2022/11/12 02:09:33;;;;;;;17.67;13.27;;;;;;;4.21;89.08;103073.53;5063058;28;20028;-70
2022/11/12 02:11:59;;;;;;;16.88;12.80;;;;;;;4.16;89.60;103078.31;5063926;28;20024;-71
2022/11/12 02:14:24;;;;;;;19.52;13.52;;;;;;;4.12;90.14;103077.13;5062212;28;20286;-70
2022/11/12 02:16:50;;;;;;;18.13;13.35;;;;;;;4.10;90.55;103075.16;5063424;28;20271;-71
2022/11/12 02:19:16;;;;;;;17.88;13.43;;;;;;;4.07;90.24;103077.50;5062134;28;20028;-70
2022/11/12 02:21:43;;;;;;;18.17;13.85;;;;;;;4.03;90.48;103078.00;5063637;28;20029;-70
2022/11/12 02:24:11;;;;;;;18.35;13.80;;;;;;;4.03;90.76;103076.34;5062844;28;20131;-71
2022/11/12 02:26:43;;;;;;;17.05;13.73;;;;;;;4.06;90.96;103086.03;5062590;28;20191;-70
2022/11/12 02:29:08;;;;;;;17.85;13.75;;;;;;;4.09;91.78;103083.69;5062057;28;20029;-70
2022/11/12 02:31:34;;;;;;;16.05;12.25;;;;;;;4.09;91.39;103078.53;5062510;28;20024;-71
2022/11/12 02:34:00;;;;;;;19.10;11.75;;;;;;;4.07;90.96;103072.34;5062506;28;20044;-71
2022/11/12 02:36:26;;;;;;;13.35;11.68;;;;;;;4.02;91.03;103073.63;5062406;28;20096;-70
2022/11/12 02:38:52;;;;;;;12.68;11.23;;;;;;;3.97;90.74;103079.28;5063351;28;20047;-70
2022/11/12 02:41:17;;;;;;;12.90;11.20;;;;;;;3.92;90.45;103077.97;5061509;28;20024;-71
2022/11/12 02:43:43;;;;;;;12.80;11.23;;;;;;;3.88;90.50;103070.78;5059693;28;20033;-69
2022/11/12 02:46:08;;;;;;;13.85;10.98;;;;;;;3.88;90.56;103070.78;5060869;28;20036;-71
2022/11/12 02:48:33;;;;;;;13.00;10.85;;;;;;;3.88;90.41;103067.25;5061167;28;20299;-71
2022/11/12 02:50:58;;;;;;;15.02;11.68;;;;;;;3.88;90.08;103056.94;5060244;28;20024;-71
2022/11/12 02:53:24;;;;;;;15.75;12.32;;;;;;;3.87;90.12;103060.28;5061790;28;20028;-71
2022/11/12 02:55:49;;;;;;;16.48;11.98;;;;;;;3.86;89.88;103061.09;5058213;28;20271;-71
2022/11/12 02:58:14;;;;;;;14.95;11.55;;;;;;;3.83;89.88;103051.41;5062734;28;20021;-71
2022/11/12 03:00:40;;;;;;;15.70;11.57;;;;;;;3.85;90.00;103054.09;5062817;28;20096;-71
2022/11/12 03:03:05;;;;;;;16.23;11.65;;;;;;;3.85;90.01;103042.09;5061837;28;20021;-70
2022/11/12 03:05:32;;;;;;;14.30;11.18;;;;;;;3.87;89.96;103047.41;5061182;28;20092;-71
2022/11/12 03:08:00;;;;;;;14.73;11.50;;;;;;;3.89;90.28;103056.19;5062440;28;20048;-70
2022/11/12 03:10:27;;;;;;;13.20;10.77;;;;;;;3.90;90.61;103048.56;5077438;28;20295;-71
2022/11/12 03:12:54;;;;;;;14.18;10.88;;;;;;;3.93;90.31;103053.09;5062070;28;20045;-71
2022/11/12 03:15:20;;;;;;;14.25;11.45;;;;;;;3.93;89.78;103056.56;5061866;28;20032;-70
2022/11/12 03:17:45;;;;;;;15.30;10.93;;;;;;;3.91;89.43;103059.78;5061219;28;20111;-70
2022/11/12 03:20:11;;;;;;;17.30;11.70;;;;;;;3.92;89.66;103062.50;5055524;28;20049;-71
2022/11/12 03:22:37;;;;;;;13.75;11.02;;;;;;;3.92;89.65;103061.59;5054713;28;20041;-70
2022/11/12 03:25:03;;;;;;;14.50;10.98;;;;;;;3.91;89.64;103071.03;5054601;28;20086;-70
2022/11/12 03:27:29;;;;;;;14.75;10.95;;;;;;;3.90;89.72;103064.06;5054077;28;20063;-70
2022/11/12 03:29:55;;;;;;;15.65;10.90;;;;;;;3.90;89.96;103066.63;5055182;28;20443;-71
2022/11/12 03:32:20;;;;;;;14.35;10.48;;;;;;;3.88;89.72;103069.84;5053570;28;20233;-71
2022/11/12 03:34:45;;;;;;;15.43;10.57;;;;;;;3.85;90.00;103070.47;5054544;28;20035;-70
2022/11/12 03:37:10;;;;;;;15.52;10.20;;;;;;;3.83;89.90;103067.75;5053665;28;20314;-65
2022/11/12 03:39:36;;;;;;;14.13;10.13;;;;;;;3.82;90.12;103076.28;5055732;28;20048;-65
2022/11/12 03:42:02;;;;;;;16.55;11.00;;;;;;;3.83;90.44;103077.19;5054905;28;20063;-65
2022/11/12 03:44:27;;;;;;;15.65;10.82;;;;;;;3.82;90.34;103065.06;5052013;28;20018;-66
2022/11/12 03:46:52;;;;;;;14.18;10.70;;;;;;;3.82;90.22;103072.78;5054692;28;20025;-65
2022/11/12 03:49:18;;;;;;;15.48;10.55;;;;;;;3.83;90.38;103070.34;5054532;28;20033;-65
2022/11/12 03:51:43;;;;;;;16.38;11.02;;;;;;;3.85;90.96;103070.47;5053970;28;20032;-65
2022/11/12 03:54:08;;;;;;;15.68;10.48;;;;;;;3.88;91.21;103067.25;5066191;28;20032;-65
2022/11/12 03:56:33;;;;;;;15.52;10.65;;;;;;;3.89;91.77;103067.41;5054203;28;20017;-65
2022/11/12 03:58:59;;;;;;;15.27;10.68;;;;;;;3.89;91.71;103075.13;5054339;28;21235;-65
2022/11/12 04:01:24;;;;;;;16.13;10.55;;;;;;;3.89;92.14;103075.13;5054725;28;20036;-65
2022/11/12 04:03:49;;;;;;;17.05;11.27;;;;;;;3.90;91.77;103073.47;5054483;28;20048;-65
2022/11/12 04:08:59;;;;;;;15.43;10.15;;;;;;;3.93;91.64;103072.06;5062103;28;20058;-71
2022/11/12 04:11:24;;;;;;;15.27;10.38;;;;;;;3.94;91.52;103063.56;5061167;28;20029;-70
2022/11/12 04:13:49;;;;;;;13.43;9.75;;;;;;;3.94;90.97;103060.03;5061103;28;20032;-71
2022/11/12 04:21:53;;;;;;;16.30;10.68;;;;;;;3.90;91.24;103051.16;5056646;28;20059;-71
2022/11/12 04:27:07;;;;;;;17.58;11.55;;;;;;;3.89;91.17;103045.88;5060338;28;20040;-71
2022/11/12 04:32:17;;;;;;;18.23;12.13;;;;;;;3.93;90.74;103048.84;5060660;28;20239;-71
2022/11/12 04:34:42;;;;;;;15.05;11.15;;;;;;;3.90;90.57;103035.69;5061177;28;20271;-71
2022/11/12 04:37:08;;;;;;;15.77;11.77;;;;;;;3.91;90.31;103040.09;5075954;28;20291;-71
2022/11/12 04:39:33;;;;;;;16.10;11.32;;;;;;;3.90;90.28;103042.53;5061092;28;20333;-71
2022/11/12 04:44:58;;;;;;;16.85;11.30;;;;;;;3.89;90.43;103041.59;5060384;28;20305;-70
2022/11/12 04:47:25;;;;;;;16.13;10.43;;;;;;;3.92;90.37;103048.72;5060993;28;20096;-71
2022/11/12 04:49:50;;;;;;;13.90;10.20;;;;;;;3.92;90.21;103043.56;5062455;28;20025;-70
2022/11/12 04:52:16;;;;;;;16.90;10.50;;;;;;;3.90;90.44;103048.56;5065249;28;20043;-71
2022/11/12 04:54:41;;;;;;;15.50;10.20;;;;;;;3.92;90.27;103046.13;5064527;28;20259;-71
2022/11/12 04:57:06;;;;;;;14.05;9.90;;;;;;;3.89;90.11;103041.59;5064017;28;20609;-71
2022/11/12 04:59:31;;;;;;;14.70;9.60;;;;;;;3.90;89.94;103034.78;5063671;28;20028;-71
2022/11/12 05:01:57;;;;;;;13.63;9.82;;;;;;;3.90;90.52;103033.09;5062101;28;20250;-71
2022/11/12 05:04:26;;;;;;;13.38;9.45;;;;;;;3.89;90.88;103020.97;5062439;28;20029;-71
2022/11/12 05:06:52;;;;;;;15.32;9.85;;;;;;;3.88;90.57;103024.34;5062979;28;20033;-65
2022/11/12 05:09:23;;;;;;;14.95;10.65;;;;;;;3.85;90.42;103024.06;5064245;28;20306;-66
2022/11/12 05:11:49;;;;;;;13.63;9.95;;;;;;;3.83;90.58;103023.03;5064167;28;20093;-65
2022/11/12 05:14:14;;;;;;;15.38;10.10;;;;;;;3.82;90.75;103023.78;5064486;28;20040;-65
2022/11/12 05:16:40;;;;;;;16.23;10.90;;;;;;;3.83;90.26;103030.78;5063177;28;20240;-65
2022/11/12 05:19:05;;;;;;;14.75;10.40;;;;;;;3.83;90.38;103031.66;5064698;28;20096;-65
2022/11/12 05:24:15;;;;;;;14.45;10.02;;;;;;;3.82;90.32;103014.41;5063072;28;20079;-65
2022/11/12 05:26:40;;;;;;;17.05;10.77;;;;;;;3.83;90.19;103016.19;5063890;28;20028;-65
2022/11/12 05:29:05;;;;;;;15.77;10.60;;;;;;;3.83;90.28;103015.28;5063514;28;20029;-65
2022/11/12 05:31:31;;;;;;;16.50;10.05;;;;;;;3.82;90.61;103009.25;5063438;28;20041;-65
2022/11/12 05:33:56;;;;;;;16.90;10.43;;;;;;;3.83;90.84;103004.97;5063797;28;20036;-65
2022/11/12 05:36:21;;;;;;;18.15;10.85;;;;;;;3.85;90.53;103005.13;5063543;28;20037;-71
2022/11/12 05:38:47;;;;;;;17.60;11.25;;;;;;;3.83;90.52;103007.56;5063097;28;20036;-71
2022/11/12 05:41:12;;;;;;;15.50;10.90;;;;;;;3.81;90.38;103016.84;5063601;28;20036;-71
2022/11/12 05:43:37;;;;;;;16.95;11.18;;;;;;;3.80;90.46;103009.88;5063083;28;20052;-70
2022/11/12 05:46:03;;;;;;;16.50;10.00;;;;;;;3.80;90.62;103009.88;5063482;28;20275;-71
2022/11/12 05:48:28;;;;;;;14.50;10.10;;;;;;;3.79;90.17;103006.38;5062724;28;20378;-71
2022/11/12 05:50:53;;;;;;;16.48;11.10;;;;;;;3.78;90.20;103013.97;5056804;28;20025;-71
2022/11/12 05:53:19;;;;;;;18.20;11.05;;;;;;;3.76;90.01;103016.44;5055908;28;20037;-71
2022/11/12 05:55:44;;;;;;;14.65;10.02;;;;;;;3.76;90.02;103020.69;5056706;28;20020;-71
2022/11/12 05:58:10;;;;;;;16.48;10.52;;;;;;;3.77;90.11;103014.78;5056277;28;20366;-71
2022/11/12 06:00:37;;;;;;;16.42;10.35;;;;;;;3.74;89.97;103014.50;5054285;28;20024;-71
2022/11/12 06:03:08;;;;;;;16.48;10.80;;;;;;;3.72;90.08;103022.13;5055525;28;20020;-71
2022/11/12 06:05:34;;;;;;;15.38;10.10;;;;;;;3.69;89.89;103008.94;5056118;28;20037;-71
2022/11/12 06:08:00;;;;;;;15.13;10.35;;;;;;;3.69;90.14;103008.03;5056444;28;20045;-71
2022/11/12 06:10:25;;;;;;;15.38;10.10;;;;;;;3.65;90.00;103006.88;5059528;28;20284;-71
2022/11/12 06:12:51;;;;;;;13.65;9.63;;;;;;;3.60;89.81;103011.63;5062779;28;20036;-70
2022/11/12 06:15:17;;;;;;;14.82;10.00;;;;;;;3.58;89.97;103017.44;5062967;28;20147;-71
2022/11/12 06:17:42;;;;;;;15.25;10.20;;;;;;;3.57;90.26;103006.19;5062466;28;20100;-71
2022/11/12 06:20:08;;;;;;;14.63;9.93;;;;;;;3.55;89.67;103018.06;5062966;28;20021;-71
2022/11/12 06:22:33;;;;;;;13.73;9.82;;;;;;;3.54;89.27;103020.50;5061476;28;20044;-70
2022/11/12 06:24:59;;;;;;;14.68;9.85;;;;;;;3.54;89.71;103015.34;5062779;28;20055;-71
2022/11/12 06:27:25;;;;;;;15.00;9.70;;;;;;;3.53;89.73;103024.75;5063226;28;20025;-71
2022/11/12 06:29:50;;;;;;;14.27;10.05;;;;;;;3.51;89.63;103023.72;5062850;28;20033;-71
2022/11/12 06:32:16;;;;;;;13.93;9.90;;;;;;;3.51;90.85;103023.72;5060964;28;20084;-71
2022/11/12 06:34:41;;;;;;;16.13;10.25;;;;;;;3.51;90.54;103026.28;5062495;28;20032;-71
2022/11/12 06:37:06;;;;;;;16.88;10.05;;;;;;;3.52;90.59;103027.19;5062381;28;20037;-71
2022/11/12 06:39:31;;;;;;;12.82;8.82;;;;;;;3.50;89.88;103026.16;5061841;28;20074;-71
2022/11/12 06:41:57;;;;;;;12.98;8.95;;;;;;;3.47;90.28;103022.53;5062398;28;20045;-71
2022/11/12 06:44:22;;;;;;;14.68;9.13;;;;;;;3.47;90.44;103019.94;5061414;28;20075;-71
2022/11/12 06:46:47;;;;;;;13.25;8.80;;;;;;;3.47;90.40;103019.94;5062933;28;20310;-71
2022/11/12 06:49:13;;;;;;;14.63;9.27;;;;;;;3.45;90.15;103021.50;5061920;28;20048;-71
2022/11/12 06:51:38;;;;;;;14.98;9.73;;;;;;;3.45;90.12;103030.94;5062203;28;20017;-71
2022/11/12 06:54:05;;;;;;;14.30;9.68;;;;;;;3.44;90.47;103037.72;5062298;28;20033;-70
2022/11/12 06:56:30;;;;;;;14.32;9.88;;;;;;;3.47;90.50;103031.94;5062129;28;20040;-71
2022/11/12 06:58:55;;;;;;;13.32;9.45;;;;;;;3.43;90.87;103033.38;5062955;28;20303;-71
2022/11/12 07:01:22;;;;;;;14.75;9.52;;;;;;;3.44;91.09;103026.53;5061984;28;20035;-71
2022/11/12 07:03:50;;;;;;;12.40;9.30;;;;;;;3.44;91.18;103048.03;5061718;28;20329;-71
2022/11/12 07:06:19;;;;;;;15.10;9.68;;;;;;;3.46;91.52;103038.78;5061661;28;20256;-65
2022/11/12 07:08:45;;;;;;;15.32;9.23;;;;;;;3.47;91.44;103043.16;5060576;28;20052;-65
2022/11/12 07:11:10;;;;;;;13.85;8.95;;;;;;;3.50;91.78;103034.78;5059843;28;20021;-65
2022/11/12 07:13:36;;;;;;;14.93;10.07;;;;;;;3.52;91.78;103041.00;5060955;28;20021;-65
2022/11/12 07:16:03;;;;;;;15.60;9.88;;;;;;;3.55;91.49;103037.75;5061294;28;20158;-65
2022/11/12 07:18:29;;;;;;;13.20;9.45;;;;;;;3.57;91.70;103042.28;5057821;28;20028;-65
2022/11/12 07:21:03;;;;;;;15.05;9.77;;;;;;;3.57;91.90;103034.56;5061117;28;20231;-65
2022/11/12 07:23:31;;;;;;;14.48;10.38;;;;;;;3.58;91.70;103033.78;5059413;28;20032;-65
2022/11/12 07:25:58;;;;;;;14.10;9.60;;;;;;;3.58;92.02;103038.06;5061153;28;20025;-65
2022/11/12 07:28:24;;;;;;;15.05;9.68;;;;;;;3.59;92.37;103038.19;5062455;28;20084;-65
2022/11/12 07:31:00;;;;;;;15.25;10.23;;;;;;;3.60;92.53;103039.97;5061058;28;20036;-65
2022/11/12 07:33:26;;;;;;;16.38;10.23;;;;;;;3.61;92.92;103030.59;5061319;28;20029;-65
2022/11/12 07:36:09;;;;;;;12.93;9.63;;;;;;;3.63;93.29;103034.19;5061626;28;20057;-66
2022/11/12 07:38:37;;;;;;;15.32;9.63;;;;;;;3.64;93.65;103042.06;5060719;28;20041;-65
2022/11/12 07:41:19;;;;;;;14.07;9.35;;;;;;;3.67;94.02;103044.00;5061224;28;20063;-65
2022/11/12 07:43:46;;;;;;;15.00;10.07;;;;;;;3.72;94.49;103047.91;5056713;28;20025;-65
2022/11/12 07:46:21;;;;;;;15.65;9.77;;;;;;;3.76;94.66;103047.38;5061673;28;20063;-65
2022/11/12 07:48:46;;;;;;;15.65;9.77;;;;;;;3.79;94.79;103050.22;5058028;28;20259;-65
2022/11/12 07:51:14;;;;;;;14.65;9.73;;;;;;;3.83;95.09;103051.41;5060389;28;20053;-65
2022/11/12 07:53:40;;;;;;;16.73;9.57;;;;;;;3.86;94.80;103055.94;5059868;28;20029;-65
2022/11/12 07:56:06;;;;;;;14.88;9.93;;;;;;;3.87;95.02;103048.31;5060738;28;20040;-65
2022/11/12 07:58:33;;;;;;;12.95;9.73;;;;;;;3.91;95.09;103060.72;5062251;28;20088;-65
2022/11/12 08:01:08;;;;;;;15.48;10.23;;;;;;;3.96;95.10;103053.38;5060732;28;20236;-66
2022/11/12 08:03:34;;;;;;;16.42;10.25;;;;;;;3.98;94.95;103062.13;5077391;28;20257;-65
2022/11/12 08:06:00;;;;;;;16.25;10.32;;;;;;;3.99;95.18;103062.25;5059372;28;20024;-65
2022/11/12 08:08:26;;;;;;;16.85;10.32;;;;;;;4.02;95.11;103058.16;5061324;28;20032;-71
2022/11/12 08:10:55;;;;;;;15.43;10.30;;;;;;;4.06;95.03;103055.97;5060839;28;20041;-71
2022/11/12 08:13:20;;;;;;;;;;;;;;;4.14;94.03;103060.13;5060274;28;20035;-70
2022/11/12 08:15:46;;;;;;;13.65;9.35;;;;;;;4.14;94.50;103065.28;5058188;28;19944;-71
2022/11/12 08:18:11;;;;;;;14.63;9.98;;;;;;;4.17;94.27;103062.03;5059425;28;20163;-70
2022/11/12 08:20:37;;;;;;;17.23;10.88;;;;;;;4.20;94.63;103067.47;5056153;28;20043;-71
2022/11/12 08:23:02;;;;;;;16.83;12.02;;;;;;;4.23;94.56;103072.91;5059593;28;20294;-70
2022/11/12 08:25:27;;;;;;;17.77;11.93;;;;;;;4.26;94.86;103075.72;5061524;28;20021;-71
2022/11/12 08:27:58;;;;;;;18.15;12.13;;;;;;;4.31;94.79;103073.53;5065132;28;20178;-70
2022/11/12 08:30:24;;;;;;;16.33;11.35;;;;;;;4.34;94.77;103077.31;5062424;28;20639;-71
2022/11/12 08:32:58;;;;;;;16.40;11.90;;;;;;;4.39;95.22;103069.94;5060779;28;20244;-71
2022/11/12 08:35:25;;;;;;;14.98;10.93;;;;;;;4.42;94.95;103072.78;5057709;28;20049;-71
2022/11/12 08:37:50;;;;;;;17.48;11.32;;;;;;;4.46;94.97;103073.91;5060889;28;20037;-65
2022/11/12 08:40:15;;;;;;;17.08;12.10;;;;;;;4.49;95.14;103063.84;5076363;28;20021;-65
2022/11/12 08:42:40;;;;;;;16.98;11.98;;;;;;;4.55;94.73;103077.31;5060617;28;20036;-65
2022/11/12 08:45:07;;;;;;;17.67;11.73;;;;;;;4.59;95.33;103075.88;5064352;28;20044;-65
2022/11/12 08:47:32;;;;;;;25.05;15.18;;;;;;;4.64;95.92;103079.75;5061858;28;20255;-65
2022/11/12 08:49:57;;;;;;;25.38;16.17;;;;;;;4.69;95.46;103084.53;5078204;28;20032;-65
2022/11/12 08:52:22;;;;;;;24.55;16.20;;;;;;;4.73;95.86;103080.50;5062786;28;20047;-65
2022/11/12 08:54:48;;;;;;;28.92;17.65;;;;;;;4.78;96.19;103088.63;5064434;28;20032;-65
2022/11/12 08:57:13;;;;;;;32.25;19.88;;;;;;;4.81;96.45;103086.34;5064073;28;20393;-65
2022/11/12 08:59:38;;;;;;;37.25;22.20;;;;;;;4.86;96.85;103077.25;5061717;28;20021;-65
2022/11/12 09:02:05;;;;;;;46.22;25.52;;;;;;;4.91;97.40;103069.91;5061489;28;20025;-65
2022/11/12 09:04:30;;;;;;;42.67;25.58;;;;;;;4.95;97.23;103070.25;5062427;28;20016;-65
2022/11/12 09:06:55;;;;;;;41.55;26.60;;;;;;;5.00;97.37;103076.72;5061811;28;20101;-71
2022/11/12 09:09:20;;;;;;;43.05;26.52;;;;;;;5.04;98.11;103073.63;5063912;28;20044;-71
2022/11/12 09:11:46;;;;;;;41.92;26.08;;;;;;;5.08;97.63;103079.03;5064261;28;20211;-71
2022/11/12 09:14:11;;;;;;;28.00;18.65;;;;;;;5.13;97.95;103081.22;5063232;28;20033;-71
2022/11/12 09:16:36;;;;;;;20.58;13.65;;;;;;;5.18;98.42;103082.50;5062952;28;20108;-71
2022/11/12 09:19:01;;;;;;;22.77;14.13;;;;;;;5.22;98.67;103076.78;5063483;28;20324;-71
2022/11/12 09:21:27;;;;;;;20.83;13.20;;;;;;;5.27;98.81;103077.19;5062530;28;20040;-71
2022/11/12 09:23:52;;;;;;;21.05;13.88;;;;;;;5.34;99.06;103082.06;5065077;28;20264;-71
2022/11/12 09:26:17;;;;;;;18.90;13.60;;;;;;;5.42;99.45;103089.53;5064839;28;20025;-71
2022/11/12 09:28:42;;;;;;;21.27;13.85;;;;;;;5.50;99.99;103088.47;5064587;28;20028;-71
2022/11/12 09:31:08;;;;;;;19.98;13.45;;;;;;;5.57;100.00;103090.78;5064216;28;20029;-71
2022/11/12 09:33:33;;;;;;;19.30;13.57;;;;;;;5.63;100.00;103080.91;5063964;28;20084;-71
2022/11/12 09:36:01;;;;;;;21.02;13.23;;;;;;;5.70;100.00;103075.44;5062885;28;20061;-71
2022/11/12 09:38:26;;;;;;;18.45;13.23;;;;;;;5.75;100.00;103074.13;5063686;28;20043;-66
2022/11/12 09:40:51;;;;;;;17.40;13.30;;;;;;;5.82;100.00;103067.78;5063851;28;20029;-66
2022/11/12 09:43:19;;;;;;;19.77;13.40;;;;;;;5.87;100.00;103069.03;5052777;28;20037;-65
2022/11/12 09:45:46;;;;;;;20.00;13.23;;;;;;;5.95;100.00;103079.97;5061805;28;20438;-66
2022/11/12 09:48:18;;;;;;;18.42;13.63;;;;;;;6.00;100.00;103083.88;5058234;28;20184;-65
2022/11/12 09:50:57;;;;;;;17.25;13.43;;;;;;;6.06;100.00;103076.56;5059213;28;20059;-65
2022/11/12 09:53:48;;;;;;;18.30;13.38;;;;;;;6.13;100.00;103077.97;5061970;28;20041;-65
2022/11/12 09:56:17;;;;;;;20.95;14.10;;;;;;;6.21;100.00;103074.31;5060395;28;20059;-65
2022/11/12 09:58:43;;;;;;;19.27;14.18;;;;;;;6.28;100.00;103082.53;5063955;28;20104;-65
2022/11/12 10:01:15;;;;;;;17.85;13.23;;;;;;;6.33;100.00;103078.59;5057989;28;20083;-66
2022/11/12 10:04:02;;;;;;;18.98;13.55;;;;;;;6.40;100.00;103073.09;5058856;28;20036;-66
2022/11/12 10:07:03;;;;;;;19.80;13.43;;;;;;;6.48;100.00;103077.19;5058608;28;20090;-66
2022/11/12 10:09:56;;;;;;;19.77;13.77;;;;;;;6.59;100.00;103072.84;5058882;28;20091;-66
2022/11/12 10:12:36;;;;;;;17.88;13.43;;;;;;;6.70;100.00;103074.53;5052260;28;20163;-65
2022/11/12 10:18:41;;;;;;;17.63;12.55;;;;;;;6.96;99.70;103057.44;5061907;28;20135;-66
2022/11/12 10:21:58;;;;;;;16.58;11.82;;;;;;;7.08;99.57;103063.56;5061726;28;20337;-66
2022/11/12 10:24:32;;;;;;;18.23;12.90;;;;;;;7.22;99.29;103066.25;5054015;28;20064;-66
2022/11/12 10:26:58;;;;;;;18.30;12.50;;;;;;;7.36;99.55;103064.63;5062112;28;20040;-66
2022/11/12 10:29:46;;;;;;;20.58;13.23;;;;;;;7.49;99.22;103047.50;5063221;28;20040;-66
2022/11/12 10:32:14;;;;;;;17.83;13.07;;;;;;;7.62;99.11;103058.75;5054756;28;20071;-66
2022/11/12 10:34:40;;;;;;;22.38;14.65;;;;;;;7.75;98.71;103055.31;5062661;28;20071;-66
2022/11/12 10:37:27;;;;;;;18.35;13.90;;;;;;;7.86;98.35;103046.59;5062776;28;20279;-65
2022/11/12 10:39:52;;;;;;;19.67;14.95;;;;;;;8.01;98.40;103051.97;5049157;28;20153;-66
2022/11/12 10:42:20;;;;;;;18.38;14.30;;;;;;;8.13;98.23;103052.81;5062443;28;20324;-66
2022/11/12 10:44:46;;;;;;;19.92;14.55;;;;;;;8.25;98.20;103050.16;5063139;28;20032;-66
2022/11/12 10:47:26;;;;;;;19.80;13.93;;;;;;;8.35;97.63;103046.50;5061102;28;20025;-71
2022/11/12 10:50:17;;;;;;;20.88;14.52;;;;;;;8.48;97.88;103038.78;5062609;28;20029;-72
2022/11/12 10:53:00;;;;;;;18.98;14.15;;;;;;;8.64;97.02;103038.09;5061036;28;20029;-71
2022/11/12 10:55:28;;;;;;;20.13;14.70;;;;;;;8.76;96.73;103051.06;5054516;28;20083;-71
2022/11/12 10:58:03;;;;;;;20.00;15.15;;;;;;;8.87;97.10;103047.44;5062698;28;20044;-72
2022/11/12 11:00:29;;;;;;;20.88;15.10;;;;;;;8.95;97.09;103042.75;5062267;28;20017;-72
2022/11/12 11:02:54;;;;;;;21.52;14.73;;;;;;;9.06;97.14;103033.03;5061995;28;20056;-71
2022/11/12 11:05:31;;;;;;;21.85;15.35;;;;;;;9.14;96.62;103028.34;5062004;28;20021;-71
2022/11/12 11:07:56;;;;;;;21.63;14.70;;;;;;;9.21;96.31;103023.66;5062198;28;20044;-71
2022/11/12 11:10:28;;;;;;;20.85;15.65;;;;;;;9.32;96.59;103018.22;5076023;28;20023;-72
2022/11/12 11:13:20;;;;;;;21.38;15.43;;;;;;;9.44;94.59;103029.41;5050652;28;20199;-72
2022/11/12 11:16:06;;;;;;;18.50;14.63;;;;;;;9.59;94.54;103021.69;5061463;28;20071;-72
2022/11/12 11:18:35;;;;;;;21.13;15.45;;;;;;;9.69;92.77;103020.53;5075776;28;20020;-72
2022/11/12 11:21:34;;;;;;;22.23;15.57;;;;;;;9.79;92.90;103028.13;5060729;28;20129;-71
2022/11/12 11:24:21;;;;;;;23.20;15.15;;;;;;;9.94;91.58;103024.69;5059957;28;20024;-71
2022/11/12 11:27:04;;;;;;;21.73;15.13;;;;;;;10.04;91.92;103022.72;5061692;28;20071;-72
2022/11/12 11:30:06;;;;;;;22.52;15.63;;;;;;;10.16;91.06;103016.47;5062628;28;20275;-71
2022/11/12 11:32:49;;;;;;;23.92;16.90;;;;;;;10.27;89.75;103016.28;5061651;28;20032;-72
2022/11/12 11:35:20;;;;;;;26.52;17.40;;;;;;;10.40;89.42;103009.25;5061477;28;20139;-71
2022/11/12 11:38:22;;;;;;;24.85;16.73;;;;;;;10.47;89.99;103011.41;5061398;28;20243;-71
2022/11/12 11:40:48;;;;;;;26.50;17.70;;;;;;;10.61;89.10;103020.03;5061499;28;20180;-71
2022/11/12 11:43:35;;;;;;;27.02;17.33;;;;;;;10.71;89.66;103016.25;5061883;28;20087;-71
2022/11/12 11:46:20;;;;;;;28.38;18.23;;;;;;;10.83;89.28;103006.50;5061372;28;20037;-71
2022/11/12 11:49:21;;;;;;;28.77;18.60;;;;;;;10.96;87.65;102996.00;5061687;28;20104;-71